createdAt,value
2022-11-02T00:01:15.729Z,101046.56
2022-11-02T00:06:17.589Z,101046.47
2022-11-02T00:11:19.259Z,101043.69
2022-11-02T00:16:23.023Z,101052.97
2022-11-02T00:21:27.109Z,101070.22
2022-11-02T00:26:29.263Z,101040.56
2022-11-02T00:31:30.950Z,101047.97
2022-11-02T00:36:33.705Z,101031.34
2022-11-02T00:41:35.287Z,101027.38
2022-11-02T00:46:37.412Z,101005.50
2022-11-02T00:51:39.187Z,101021.19
2022-11-02T00:56:40.826Z,101021.06
2022-11-02T01:01:47.445Z,101023.84
2022-11-02T01:06:49.301Z,101030.38
2022-11-02T01:11:51.349Z,101009.03
2022-11-02T01:16:53.064Z,101009.44
2022-11-02T01:21:54.760Z,101019.38
2022-11-02T01:26:56.367Z,101012.88
2022-11-02T01:31:58.047Z,101040.75
2022-11-02T01:36:59.829Z,101032.00
2022-11-02T01:42:01.728Z,101025.63
2022-11-02T01:47:16.054Z,101015.97
2022-11-02T01:52:24.260Z,101012.56
2022-11-02T01:57:28.323Z,101016.00
2022-11-02T02:02:30.188Z,101005.41
2022-11-02T02:07:33.991Z,101011.59
2022-11-02T02:12:39.755Z,101014.13
2022-11-02T02:17:45.078Z,101023.44
2022-11-02T02:23:18.841Z,101027.22
2022-11-02T02:28:53.489Z,101026.03
2022-11-02T02:34:03.938Z,101011.59
2022-11-02T02:39:14.202Z,100996.06
2022-11-02T02:44:22.450Z,100995.53
2022-11-02T02:49:38.066Z,100994.19
2022-11-02T02:54:43.796Z,101016.94
2022-11-02T02:59:48.831Z,101003.19
2022-11-02T03:04:53.427Z,100997.19
2022-11-02T03:10:11.292Z,101001.50
2022-11-02T03:15:19.191Z,100993.41
2022-11-02T03:20:33.684Z,101002.31
2022-11-02T03:25:56.857Z,101073.69
2022-11-02T03:31:08.514Z,101056.19
2022-11-02T03:36:19.636Z,101047.59
2022-11-02T03:41:24.701Z,101045.00
2022-11-02T03:46:27.678Z,101053.03
2022-11-02T03:51:31.210Z,101062.78
2022-11-02T03:56:41.830Z,101085.09
2022-11-02T04:01:47.473Z,101099.34
2022-11-02T04:06:49.670Z,101098.97
2022-11-02T04:12:31.379Z,101114.63
2022-11-02T04:17:51.651Z,101146.28
2022-11-02T04:23:12.833Z,101156.38
2022-11-02T04:28:15.881Z,101155.53
2022-11-02T04:33:35.249Z,101174.44
2022-11-02T04:38:50.056Z,101192.81
2022-11-02T04:43:59.236Z,101196.94
2022-11-02T04:49:01.490Z,101210.19
2022-11-02T04:54:06.389Z,101227.72
2022-11-02T04:59:08.621Z,101225.19
2022-11-02T05:04:12.342Z,101248.91
2022-11-02T05:09:14.769Z,101257.53
2022-11-02T05:14:19.984Z,101262.84
2022-11-02T05:19:22.073Z,101274.53
2022-11-02T05:24:24.193Z,101275.75
2022-11-02T05:29:26.779Z,101290.91
2022-11-02T05:34:29.047Z,101296.09
2022-11-02T05:39:30.904Z,101306.75
2022-11-02T05:44:33.440Z,101316.91
2022-11-02T05:49:35.473Z,101326.41
2022-11-02T05:54:37.213Z,101338.97
2022-11-02T05:59:38.862Z,101359.25
2022-11-02T06:04:40.595Z,101371.34
2022-11-02T06:09:42.379Z,101376.84
2022-11-02T06:14:44.103Z,101400.25
2022-11-02T06:19:45.875Z,101410.59
2022-11-02T06:24:47.544Z,101450.19
2022-11-02T06:29:49.182Z,101440.91
2022-11-02T06:34:50.850Z,101459.69
2022-11-02T06:39:52.565Z,101472.25
2022-11-02T06:44:54.285Z,101480.19
2022-11-02T06:49:56.208Z,101507.22
2022-11-02T06:54:57.849Z,101510.81
2022-11-02T07:00:04.763Z,101541.66
2022-11-02T07:05:06.921Z,101545.97
2022-11-02T07:10:10.761Z,101546.31
2022-11-02T07:15:13.441Z,101553.91
2022-11-02T07:20:15.423Z,101579.63
2022-11-02T07:25:17.261Z,101572.72
2022-11-02T07:30:22.226Z,101584.13
2022-11-02T07:35:24.617Z,101593.59
2022-11-02T07:40:27.187Z,101604.44
2022-11-02T07:45:31.420Z,101607.38
2022-11-02T07:50:33.008Z,101616.16
2022-11-02T07:55:34.823Z,101623.25
2022-11-02T08:00:38.544Z,101634.44
2022-11-02T08:05:42.893Z,101644.25
2022-11-02T08:10:48.723Z,101645.34
2022-11-02T08:15:52.027Z,101646.53
2022-11-02T08:20:56.619Z,101661.06
2022-11-02T08:25:59.390Z,101663.28
2022-11-02T08:31:01.156Z,101661.38
2022-11-02T08:36:04.813Z,101660.53
2022-11-02T08:41:06.569Z,101660.38
2022-11-02T08:46:14.909Z,101672.44
2022-11-02T08:51:18.177Z,101674.88
2022-11-02T08:56:20.513Z,101685.59
2022-11-02T09:01:27.283Z,101696.28
2022-11-02T09:06:29.126Z,101694.91
2022-11-02T09:11:30.943Z,101700.41
2022-11-02T09:16:34.410Z,101710.44
2022-11-02T09:21:39.160Z,101720.25
2022-11-02T09:26:40.944Z,101716.81
2022-11-02T09:31:42.702Z,101735.44
2022-11-02T09:36:44.375Z,101741.13
2022-11-02T09:42:01.790Z,101742.72
2022-11-02T09:47:49.907Z,101741.81
2022-11-02T09:52:36.028Z,101760.50
2022-11-02T09:57:42.587Z,101761.69
2022-11-02T10:03:00.055Z,101769.81
2022-11-02T10:08:40.015Z,101757.16
2022-11-02T10:13:54.176Z,101758.00
2022-11-02T10:18:58.428Z,101751.91
2022-11-02T10:24:10.604Z,101766.72
2022-11-02T10:29:44.720Z,101772.41
2022-11-02T10:34:58.543Z,101771.28
2022-11-02T10:40:46.665Z,101775.44
2022-11-02T10:46:05.835Z,101780.16
2022-11-02T10:51:15.704Z,101781.72
2022-11-02T10:56:20.253Z,101789.69
2022-11-02T11:01:22.107Z,101773.41
2022-11-02T11:06:26.881Z,101784.19
2022-11-02T11:11:39.602Z,101776.81
2022-11-02T11:16:46.452Z,101777.81
2022-11-02T11:21:52.098Z,101770.75
2022-11-02T11:27:12.351Z,101760.06
2022-11-02T11:32:19.177Z,101774.41
2022-11-02T11:37:21.673Z,101781.06
2022-11-02T11:42:27.361Z,101785.06
2022-11-02T11:47:38.500Z,101789.69
2022-11-02T11:52:40.550Z,101784.53
2022-11-02T11:57:43.816Z,101769.88
2022-11-02T12:03:03.042Z,101773.50
2022-11-02T12:08:31.330Z,101766.78
2022-11-02T12:13:50.581Z,101755.19
2022-11-02T12:19:16.951Z,101752.06
2022-11-02T12:24:34.020Z,101755.63
2022-11-02T12:29:45.977Z,101752.44
2022-11-02T12:35:28.252Z,101736.56
2022-11-02T12:41:00.187Z,101743.06
2022-11-02T12:46:43.368Z,101752.09
2022-11-02T12:52:25.137Z,101742.44
2022-11-02T12:57:31.829Z,101739.78
2022-11-02T13:02:47.942Z,101721.53
2022-11-02T13:08:12.402Z,101723.28
2022-11-02T13:13:28.020Z,101707.88
2022-11-02T13:19:00.669Z,101706.50
2022-11-02T13:24:04.723Z,101695.66
2022-11-02T13:29:53.027Z,101695.66
2022-11-02T13:34:55.735Z,101694.47
2022-11-02T13:40:02.063Z,101689.06
2022-11-02T13:45:35.855Z,101679.41
2022-11-02T13:50:45.377Z,101675.78
2022-11-02T13:55:55.991Z,101683.22
2022-11-02T14:01:03.937Z,101670.34
2022-11-02T14:06:14.626Z,101658.75
2022-11-02T14:11:16.253Z,101657.03
2022-11-02T14:16:42.947Z,101655.31
2022-11-02T14:22:13.175Z,101649.28
2022-11-02T14:27:16.611Z,101644.97
2022-11-02T14:32:28.311Z,101656.75
2022-11-02T14:37:57.991Z,101642.06
2022-11-02T14:42:59.702Z,101640.38
2022-11-02T14:48:05.696Z,101631.69
2022-11-02T14:53:15.239Z,101636.91
2022-11-02T14:58:26.253Z,101629.53
2022-11-02T15:03:28.867Z,101621.78
2022-11-02T15:08:34.766Z,101619.88
2022-11-02T15:13:47.602Z,101612.66
2022-11-02T15:18:49.343Z,101601.63
2022-11-02T15:23:55.150Z,101607.81
2022-11-02T15:29:01.328Z,101593.88
2022-11-02T15:34:13.540Z,101591.97
2022-11-02T15:39:18.245Z,101589.44
2022-11-02T15:44:55.517Z,101582.00
2022-11-02T15:50:35.200Z,101578.22
2022-11-02T15:56:05.130Z,101590.31
2022-11-02T16:01:26.706Z,101590.50
2022-11-02T16:06:43.086Z,101582.75
2022-11-02T16:12:03.119Z,101566.38
2022-11-02T16:17:05.465Z,101572.94
2022-11-02T16:22:09.322Z,101569.84
2022-11-02T16:27:14.063Z,101567.09
2022-11-02T16:32:16.148Z,101552.75
2022-11-02T16:37:19.700Z,101548.13
2022-11-02T16:42:25.571Z,101561.38
2022-11-02T16:47:41.526Z,101552.09
2022-11-02T16:52:54.266Z,101557.25
2022-11-02T16:58:02.805Z,101570.53
2022-11-02T17:03:11.200Z,101567.28
2022-11-02T17:08:30.033Z,101560.38
2022-11-02T17:13:35.718Z,101550.53
2022-11-02T17:18:38.311Z,101544.16
2022-11-02T17:23:43.292Z,101548.81
2022-11-02T17:28:47.014Z,101530.03
2022-11-02T17:33:49.713Z,101523.31
2022-11-02T17:38:51.980Z,101522.25
2022-11-02T17:44:16.920Z,101516.06
2022-11-02T17:49:20.827Z,101509.00
2022-11-02T17:54:26.675Z,101501.09
2022-11-02T17:59:29.312Z,101499.00
2022-11-02T18:04:31.194Z,101504.19
2022-11-02T18:09:33.044Z,101499.88
2022-11-02T18:14:37.325Z,101480.06
2022-11-02T18:19:39.858Z,101475.56
2022-11-02T18:24:43.669Z,101468.19
2022-11-02T18:35:10.085Z,101444.91
2022-11-02T18:40:19.423Z,101439.56
2022-11-02T18:45:21.931Z,101431.13
2022-11-02T18:50:24.467Z,101421.31
2022-11-02T18:55:27.560Z,101415.59
2022-11-02T19:00:29.393Z,101420.09
2022-11-02T19:05:53.849Z,101400.09
2022-11-02T19:10:58.589Z,101399.25
2022-11-02T19:16:00.635Z,101395.59
2022-11-02T19:21:02.365Z,101393.22
2022-11-02T19:26:04.902Z,101384.25
2022-11-02T19:31:08.410Z,101367.38
2022-11-02T19:36:14.681Z,101360.84
2022-11-02T19:41:17.596Z,101348.75
2022-11-02T19:46:21.378Z,101352.03
2022-11-02T19:51:28.507Z,101341.16
2022-11-02T19:56:32.979Z,101332.41
2022-11-02T20:02:06.953Z,101332.56
2022-11-02T20:07:08.611Z,101318.78
2022-11-02T20:12:10.274Z,101307.22
2022-11-02T20:17:30.269Z,101312.19
2022-11-02T20:22:35.582Z,101302.91
2022-11-02T20:27:41.158Z,101286.91
2022-11-02T20:32:43.652Z,101290.34
2022-11-02T20:37:45.565Z,101292.19
2022-11-02T20:42:49.642Z,101298.94
2022-11-02T20:47:52.054Z,101301.34
2022-11-02T20:52:55.372Z,101290.81
2022-11-02T20:58:06.507Z,101286.00
2022-11-02T21:03:08.981Z,101274.25
2022-11-02T21:08:31.954Z,101259.97
2022-11-02T21:14:01.164Z,101261.19
2022-11-02T21:24:52.178Z,101251.16
2022-11-02T21:29:57.326Z,101254.06
2022-11-02T21:35:02.913Z,101248.38
2022-11-02T21:40:08.366Z,101227.72
2022-11-02T21:45:17.692Z,101246.13
2022-11-02T21:50:19.757Z,101228.56
2022-11-02T21:55:21.536Z,101225.31
2022-11-02T22:00:43.347Z,101209.06
2022-11-02T22:05:55.244Z,101211.81
2022-11-02T22:10:57.618Z,101206.84
2022-11-02T22:16:07.692Z,101199.38
2022-11-02T22:21:10.301Z,101194.75
2022-11-02T22:26:15.467Z,101182.88
2022-11-02T22:31:23.026Z,101170.16
2022-11-02T22:36:27.001Z,101155.13
2022-11-02T22:41:38.014Z,101143.25
2022-11-02T22:46:44.683Z,101136.69
2022-11-02T22:51:48.952Z,101138.75
2022-11-02T22:56:50.727Z,101141.69
2022-11-02T23:01:52.446Z,101122.78
2022-11-02T23:06:54.210Z,101126.38
2022-11-02T23:11:55.871Z,101117.44
2022-11-02T23:16:58.712Z,101115.53
2022-11-02T23:22:21.233Z,101104.16
2022-11-02T23:27:23.410Z,101101.88
2022-11-02T23:32:27.866Z,101090.97
2022-11-02T23:37:30.208Z,101079.81
2022-11-02T23:42:32.205Z,101077.91
2022-11-02T23:47:52.401Z,101065.16
2022-11-02T23:53:12.913Z,101058.97
2022-11-02T23:58:14.687Z,101045.75
